sensor_id;sensor_type;location;lat;lon;timestamp;pressure;altitude;pressure_sealevel;temperature;humidity
77171;BME280;66144;50.020;14.422;2023-04-25T00:01:26;98128.75;;;10.63;61.04
77171;BME280;66144;50.020;14.422;2023-04-25T00:03:54;98126.41;;;10.71;61.03
77171;BME280;66144;50.020;14.422;2023-04-25T00:06:24;98131.34;;;10.68;61.13
77171;BME280;66144;50.020;14.422;2023-04-25T00:08:52;98131.88;;;10.65;61.43
77171;BME280;66144;50.020;14.422;2023-04-25T00:11:20;98123.00;;;10.66;60.85
77171;BME280;66144;50.020;14.422;2023-04-25T00:13:47;98127.44;;;10.65;61.25
77171;BME280;66144;50.020;14.422;2023-04-25T00:16:17;98120.13;;;10.62;61.01
77171;BME280;66144;50.020;14.422;2023-04-25T00:18:45;98120.13;;;10.62;61.66
77171;BME280;66144;50.020;14.422;2023-04-25T00:21:19;98120.13;;;10.47;61.50
77171;BME280;66144;50.020;14.422;2023-04-25T00:23:52;98118.56;;;10.46;61.89
77171;BME280;66144;50.020;14.422;2023-04-25T00:26:20;98117.78;;;10.56;61.44
77171;BME280;66144;50.020;14.422;2023-04-25T00:28:48;98118.56;;;10.51;61.88
77171;BME280;66144;50.020;14.422;2023-04-25T00:31:15;98127.19;;;10.57;61.91
77171;BME280;66144;50.020;14.422;2023-04-25T00:33:43;98124.03;;;10.45;62.00
77171;BME280;66144;50.020;14.422;2023-04-25T00:36:10;98127.72;;;10.38;62.23
77171;BME280;66144;50.020;14.422;2023-04-25T00:38:38;98124.03;;;10.39;62.44
77171;BME280;66144;50.020;14.422;2023-04-25T00:41:09;98118.06;;;10.39;62.64
77171;BME280;66144;50.020;14.422;2023-04-25T00:43:38;98117.78;;;10.41;62.66
77171;BME280;66144;50.020;14.422;2023-04-25T00:46:07;98119.88;;;10.44;62.18
77171;BME280;66144;50.020;14.422;2023-04-25T00:48:35;98113.59;;;10.34;61.89
77171;BME280;66144;50.020;14.422;2023-04-25T00:51:03;98120.13;;;10.37;63.13
77171;BME280;66144;50.020;14.422;2023-04-25T00:53:33;98120.94;;;10.37;63.74
77171;BME280;66144;50.020;14.422;2023-04-25T00:56:00;98110.72;;;10.31;63.99
77171;BME280;66144;50.020;14.422;2023-04-25T00:58:29;98113.06;;;10.27;63.97
77171;BME280;66144;50.020;14.422;2023-04-25T01:00:57;98107.31;;;10.20;64.56
77171;BME280;66144;50.020;14.422;2023-04-25T01:03:26;98112.25;;;10.17;64.85
77171;BME280;66144;50.020;14.422;2023-04-25T01:05:55;98105.97;;;10.13;64.90
77171;BME280;66144;50.020;14.422;2023-04-25T01:08:24;98104.41;;;10.07;64.62
77171;BME280;66144;50.020;14.422;2023-04-25T01:10:52;98106.22;;;10.01;64.97
77171;BME280;66144;50.020;14.422;2023-04-25T01:13:20;98108.81;;;9.96;65.20
77171;BME280;66144;50.020;14.422;2023-04-25T01:15:48;98105.41;;;9.85;65.55
77171;BME280;66144;50.020;14.422;2023-04-25T01:18:16;98115.56;;;9.82;66.00
77171;BME280;66144;50.020;14.422;2023-04-25T01:20:46;98110.59;;;9.75;66.06
77171;BME280;66144;50.020;14.422;2023-04-25T01:23:14;98106.66;;;9.67;66.28
77171;BME280;66144;50.020;14.422;2023-04-25T01:25:43;98104.03;;;9.62;66.15
77171;BME280;66144;50.020;14.422;2023-04-25T01:28:12;98100.63;;;9.57;66.29
77171;BME280;66144;50.020;14.422;2023-04-25T01:30:39;98106.59;;;9.52;66.62
77171;BME280;66144;50.020;14.422;2023-04-25T01:33:09;98095.88;;;9.44;67.50
77171;BME280;66144;50.020;14.422;2023-04-25T01:35:38;98095.09;;;9.38;67.43
77171;BME280;66144;50.020;14.422;2023-04-25T01:38:07;98099.97;;;9.29;67.62
77171;BME280;66144;50.020;14.422;2023-04-25T01:40:35;98103.34;;;9.25;67.54
77171;BME280;66144;50.020;14.422;2023-04-25T01:43:04;98109.34;;;9.20;67.60
77171;BME280;66144;50.020;14.422;2023-04-25T01:45:32;98105.91;;;9.15;68.09
77171;BME280;66144;50.020;14.422;2023-04-25T01:48:00;98108.19;;;9.06;68.19
77171;BME280;66144;50.020;14.422;2023-04-25T01:50:27;98110.78;;;9.01;68.48
77171;BME280;66144;50.020;14.422;2023-04-25T01:52:57;98108.94;;;8.96;69.07
77171;BME280;66144;50.020;14.422;2023-04-25T01:55:25;98108.34;;;8.89;69.04
77171;BME280;66144;50.020;14.422;2023-04-25T01:57:53;98107.28;;;8.80;69.71
77171;BME280;66144;50.020;14.422;2023-04-25T02:00:21;98110.91;;;8.79;69.49
77171;BME280;66144;50.020;14.422;2023-04-25T02:02:50;98100.16;;;8.71;69.64
77171;BME280;66144;50.020;14.422;2023-04-25T02:05:21;98108.44;;;8.62;70.09
77171;BME280;66144;50.020;14.422;2023-04-25T02:07:49;98111.06;;;8.62;69.90
77171;BME280;66144;50.020;14.422;2023-04-25T02:10:17;98111.31;;;8.61;70.10
77171;BME280;66144;50.020;14.422;2023-04-25T02:12:44;98110.22;;;8.57;70.16
77171;BME280;66144;50.020;14.422;2023-04-25T02:15:16;98110.66;;;8.49;70.74
77171;BME280;66144;50.020;14.422;2023-04-25T02:17:46;98111.88;;;8.36;70.85
77171;BME280;66144;50.020;14.422;2023-04-25T02:20:14;98104.31;;;8.35;71.38
77171;BME280;66144;50.020;14.422;2023-04-25T02:22:46;98095.41;;;8.30;71.23
77171;BME280;66144;50.020;14.422;2023-04-25T02:25:14;98098.75;;;8.26;71.40
77171;BME280;66144;50.020;14.422;2023-04-25T02:27:42;98093.25;;;8.22;71.56
77171;BME280;66144;50.020;14.422;2023-04-25T02:30:10;98092.72;;;8.20;71.74
77171;BME280;66144;50.020;14.422;2023-04-25T02:32:40;98081.78;;;8.18;71.95
77171;BME280;66144;50.020;14.422;2023-04-25T02:35:09;98089.56;;;8.18;71.83
77171;BME280;66144;50.020;14.422;2023-04-25T02:37:38;98085.34;;;8.12;72.15
77171;BME280;66144;50.020;14.422;2023-04-25T02:40:06;98081.94;;;8.07;72.12
77171;BME280;66144;50.020;14.422;2023-04-25T02:42:34;98079.28;;;8.02;72.35
77171;BME280;66144;50.020;14.422;2023-04-25T02:45:03;98086.31;;;8.01;71.56
77171;BME280;66144;50.020;14.422;2023-04-25T02:47:31;98089.34;;;7.93;72.41
77171;BME280;66144;50.020;14.422;2023-04-25T02:49:59;98089.56;;;7.91;72.03
77171;BME280;66144;50.020;14.422;2023-04-25T02:52:27;98083.56;;;7.86;71.60
77171;BME280;66144;50.020;14.422;2023-04-25T02:54:54;98082.78;;;7.85;72.81
77171;BME280;66144;50.020;14.422;2023-04-25T02:57:23;98091.06;;;7.82;72.77
77171;BME280;66144;50.020;14.422;2023-04-25T02:59:53;98077.69;;;7.74;72.61
77171;BME280;66144;50.020;14.422;2023-04-25T03:02:19;98082.91;;;7.74;72.58
77171;BME280;66144;50.020;14.422;2023-04-25T03:04:45;98081.31;;;7.73;73.21
77171;BME280;66144;50.020;14.422;2023-04-25T03:07:11;98078.97;;;7.71;73.43
77171;BME280;66144;50.020;14.422;2023-04-25T03:09:37;98077.94;;;7.72;73.15
77171;BME280;66144;50.020;14.422;2023-04-25T03:12:09;98072.19;;;7.70;73.47
77171;BME280;66144;50.020;14.422;2023-04-25T03:14:39;98066.97;;;7.65;73.35
77171;BME280;66144;50.020;14.422;2023-04-25T03:17:06;98070.34;;;7.66;73.27
77171;BME280;66144;50.020;14.422;2023-04-25T03:19:34;98071.56;;;7.58;74.14
77171;BME280;66144;50.020;14.422;2023-04-25T03:22:02;98069.56;;;7.65;73.94
77171;BME280;66144;50.020;14.422;2023-04-25T03:24:30;98066.72;;;7.67;73.68
77171;BME280;66144;50.020;14.422;2023-04-25T03:26:58;98074.22;;;7.63;74.02
77171;BME280;66144;50.020;14.422;2023-04-25T03:29:27;98070.34;;;7.66;73.47
77171;BME280;66144;50.020;14.422;2023-04-25T03:31:56;98075.31;;;7.67;73.95
77171;BME280;66144;50.020;14.422;2023-04-25T03:34:24;98073.97;;;7.65;73.89
77171;BME280;66144;50.020;14.422;2023-04-25T03:36:55;98069.31;;;7.67;74.02
77171;BME280;66144;50.020;14.422;2023-04-25T03:39:27;98064.69;;;7.69;73.87
77171;BME280;66144;50.020;14.422;2023-04-25T03:41:56;98066.50;;;7.73;74.49
77171;BME280;66144;50.020;14.422;2023-04-25T03:44:24;98069.41;;;7.77;73.91
77171;BME280;66144;50.020;14.422;2023-04-25T03:46:53;98066.34;;;7.80;74.88
77171;BME280;66144;50.020;14.422;2023-04-25T03:49:22;98065.59;;;7.84;74.08
77171;BME280;66144;50.020;14.422;2023-04-25T03:51:51;98058.28;;;7.81;74.60
77171;BME280;66144;50.020;14.422;2023-04-25T03:54:18;98062.25;;;7.89;74.21
77171;BME280;66144;50.020;14.422;2023-04-25T03:56:43;98062.53;;;7.92;74.59
77171;BME280;66144;50.020;14.422;2023-04-25T03:59:09;98061.81;;;7.97;74.70
77171;BME280;66144;50.020;14.422;2023-04-25T04:01:35;98069.13;;;8.00;74.35
77171;BME280;66144;50.020;14.422;2023-04-25T04:04:03;98065.78;;;8.05;74.55
77171;BME280;66144;50.020;14.422;2023-04-25T04:06:32;98071.25;;;8.08;75.13
77171;BME280;66144;50.020;14.422;2023-04-25T04:09:01;98063.22;;;8.10;75.11
77171;BME280;66144;50.020;14.422;2023-04-25T04:11:30;98063.75;;;8.12;74.15
77171;BME280;66144;50.020;14.422;2023-04-25T04:14:00;98067.19;;;8.17;74.60
77171;BME280;66144;50.020;14.422;2023-04-25T04:16:29;98068.28;;;8.21;74.39
77171;BME280;66144;50.020;14.422;2023-04-25T04:18:56;98067.78;;;8.24;73.92
77171;BME280;66144;50.020;14.422;2023-04-25T04:21:25;98063.97;;;8.32;72.65
77171;BME280;66144;50.020;14.422;2023-04-25T04:23:54;98068.44;;;8.37;72.77
77171;BME280;66144;50.020;14.422;2023-04-25T04:26:22;98073.97;;;8.45;71.81
77171;BME280;66144;50.020;14.422;2023-04-25T04:28:52;98074.78;;;8.51;71.65
77171;BME280;66144;50.020;14.422;2023-04-25T04:31:21;98074.81;;;8.56;72.71
77171;BME280;66144;50.020;14.422;2023-04-25T04:33:50;98068.56;;;8.57;72.20
77171;BME280;66144;50.020;14.422;2023-04-25T04:36:18;98069.16;;;8.64;70.91
77171;BME280;66144;50.020;14.422;2023-04-25T04:38:50;98065.28;;;8.72;71.00
77171;BME280;66144;50.020;14.422;2023-04-25T04:41:18;98066.91;;;8.78;70.08
77171;BME280;66144;50.020;14.422;2023-04-25T04:43:47;98070.31;;;8.83;70.77
77171;BME280;66144;50.020;14.422;2023-04-25T04:46:16;98071.66;;;8.91;69.93
77171;BME280;66144;50.020;14.422;2023-04-25T04:48:44;98080.81;;;8.98;70.23
77171;BME280;66144;50.020;14.422;2023-04-25T04:51:12;98068.88;;;9.03;69.61
77171;BME280;66144;50.020;14.422;2023-04-25T04:53:39;98069.91;;;9.02;69.43
77171;BME280;66144;50.020;14.422;2023-04-25T04:56:07;98068.09;;;9.02;69.57
77171;BME280;66144;50.020;14.422;2023-04-25T04:58:35;98074.34;;;9.06;70.08
77171;BME280;66144;50.020;14.422;2023-04-25T05:01:03;98075.00;;;8.86;69.51
77171;BME280;66144;50.020;14.422;2023-04-25T05:03:34;98078.00;;;9.10;69.18
77171;BME280;66144;50.020;14.422;2023-04-25T05:06:02;98073.63;;;9.16;69.77
77171;BME280;66144;50.020;14.422;2023-04-25T05:08:29;98071.81;;;9.21;69.11
77171;BME280;66144;50.020;14.422;2023-04-25T05:10:56;98063.78;;;9.33;68.72
77171;BME280;66144;50.020;14.422;2023-04-25T05:13:23;98071.13;;;9.41;68.18
77171;BME280;66144;50.020;14.422;2023-04-25T05:15:51;98070.09;;;9.42;68.19
77171;BME280;66144;50.020;14.422;2023-04-25T05:18:20;98065.94;;;9.51;68.54
77171;BME280;66144;50.020;14.422;2023-04-25T05:20:47;98072.16;;;9.45;68.51
77171;BME280;66144;50.020;14.422;2023-04-25T05:23:15;98067.72;;;9.46;68.32
77171;BME280;66144;50.020;14.422;2023-04-25T05:25:43;98063.34;;;9.56;68.42
77171;BME280;66144;50.020;14.422;2023-04-25T05:28:13;98063.38;;;9.61;68.32
77171;BME280;66144;50.020;14.422;2023-04-25T05:30:48;98059.44;;;9.54;68.12
77171;BME280;66144;50.020;14.422;2023-04-25T05:33:21;98057.09;;;9.62;68.14
77171;BME280;66144;50.020;14.422;2023-04-25T05:35:49;98064.59;;;9.39;68.59
77171;BME280;66144;50.020;14.422;2023-04-25T05:38:17;98061.25;;;9.53;69.13
77171;BME280;66144;50.020;14.422;2023-04-25T05:40:45;98061.47;;;9.37;68.80
77171;BME280;66144;50.020;14.422;2023-04-25T05:43:14;98070.88;;;9.48;68.98
77171;BME280;66144;50.020;14.422;2023-04-25T05:45:46;98071.94;;;9.52;69.10
77171;BME280;66144;50.020;14.422;2023-04-25T05:48:16;98064.63;;;9.54;68.35
77171;BME280;66144;50.020;14.422;2023-04-25T05:50:43;98060.47;;;9.53;68.32
77171;BME280;66144;50.020;14.422;2023-04-25T05:53:14;98066.19;;;9.50;68.64
77171;BME280;66144;50.020;14.422;2023-04-25T05:55:42;98062.06;;;9.69;68.46
77171;BME280;66144;50.020;14.422;2023-04-25T05:58:10;98063.09;;;9.68;68.02
77171;BME280;66144;50.020;14.422;2023-04-25T06:00:38;98070.69;;;9.69;67.76
77171;BME280;66144;50.020;14.422;2023-04-25T06:03:08;98056.13;;;9.89;67.02
77171;BME280;66144;50.020;14.422;2023-04-25T06:05:44;98058.50;;;10.11;67.23
77171;BME280;66144;50.020;14.422;2023-04-25T06:08:19;98053.56;;;10.24;66.60
77171;BME280;66144;50.020;14.422;2023-04-25T06:10:50;98054.59;;;10.28;66.27
77171;BME280;66144;50.020;14.422;2023-04-25T06:13:17;98057.72;;;10.41;65.37
77171;BME280;66144;50.020;14.422;2023-04-25T06:15:45;98057.50;;;10.37;65.13
77171;BME280;66144;50.020;14.422;2023-04-25T06:18:24;98053.56;;;10.55;64.76
77171;BME280;66144;50.020;14.422;2023-04-25T06:20:52;98048.06;;;10.41;65.43
77171;BME280;66144;50.020;14.422;2023-04-25T06:23:19;98053.03;;;10.48;64.51
77171;BME280;66144;50.020;14.422;2023-04-25T06:25:47;98051.72;;;10.60;64.73
77171;BME280;66144;50.020;14.422;2023-04-25T06:28:15;98055.13;;;10.56;65.17
77171;BME280;66144;50.020;14.422;2023-04-25T06:30:42;98056.97;;;10.55;65.22
77171;BME280;66144;50.020;14.422;2023-04-25T06:33:09;98050.94;;;10.50;65.21
77171;BME280;66144;50.020;14.422;2023-04-25T06:35:37;98045.19;;;10.43;65.10
77171;BME280;66144;50.020;14.422;2023-04-25T06:38:04;98048.34;;;10.45;65.76
77171;BME280;66144;50.020;14.422;2023-04-25T06:40:35;98045.47;;;10.51;65.86
77171;BME280;66144;50.020;14.422;2023-04-25T06:43:06;98042.31;;;10.59;65.52
77171;BME280;66144;50.020;14.422;2023-04-25T06:45:34;98049.38;;;10.54;65.23
77171;BME280;66144;50.020;14.422;2023-04-25T06:48:02;98042.34;;;10.54;65.25
77171;BME280;66144;50.020;14.422;2023-04-25T06:50:30;98049.09;;;10.60;65.42
77171;BME280;66144;50.020;14.422;2023-04-25T06:52:57;98043.09;;;10.60;65.35
77171;BME280;66144;50.020;14.422;2023-04-25T06:55:24;98048.06;;;10.66;65.74
77171;BME280;66144;50.020;14.422;2023-04-25T06:57:51;98043.09;;;10.65;65.01
77171;BME280;66144;50.020;14.422;2023-04-25T07:00:18;98045.69;;;10.75;64.93
77171;BME280;66144;50.020;14.422;2023-04-25T07:02:45;98041.78;;;10.72;65.11
77171;BME280;66144;50.020;14.422;2023-04-25T07:05:12;98039.97;;;10.68;65.47
77171;BME280;66144;50.020;14.422;2023-04-25T07:07:39;98043.09;;;10.60;65.13
77171;BME280;66144;50.020;14.422;2023-04-25T07:10:08;98037.59;;;10.66;65.93
77171;BME280;66144;50.020;14.422;2023-04-25T07:12:36;98041.00;;;10.72;65.55
77171;BME280;66144;50.020;14.422;2023-04-25T07:15:04;98033.41;;;10.76;65.03
77171;BME280;66144;50.020;14.422;2023-04-25T07:17:34;98039.91;;;10.88;65.34
77171;BME280;66144;50.020;14.422;2023-04-25T07:20:02;98034.94;;;10.87;64.97
77171;BME280;66144;50.020;14.422;2023-04-25T07:22:30;98034.69;;;10.93;64.62
77171;BME280;66144;50.020;14.422;2023-04-25T07:24:58;98042.00;;;10.91;65.08
77171;BME280;66144;50.020;14.422;2023-04-25T07:27:25;98038.34;;;10.92;64.78
77171;BME280;66144;50.020;14.422;2023-04-25T07:29:53;98030.97;;;11.10;65.24
77171;BME280;66144;50.020;14.422;2023-04-25T07:32:21;98038.22;;;11.28;64.43
77171;BME280;66144;50.020;14.422;2023-04-25T07:34:49;98032.34;;;11.51;64.42
77171;BME280;66144;50.020;14.422;2023-04-25T07:37:17;98039.81;;;11.73;64.04
77171;BME280;66144;50.020;14.422;2023-04-25T07:39:46;98032.41;;;11.90;63.49
77171;BME280;66144;50.020;14.422;2023-04-25T07:42:14;98033.00;;;12.16;62.01
77171;BME280;66144;50.020;14.422;2023-04-25T07:44:43;98028.47;;;12.56;60.06
77171;BME280;66144;50.020;14.422;2023-04-25T07:47:11;98029.72;;;12.87;59.56
77171;BME280;66144;50.020;14.422;2023-04-25T07:49:39;98035.91;;;12.96;58.57
77171;BME280;66144;50.020;14.422;2023-04-25T07:52:07;98031.78;;;13.14;59.23
77171;BME280;66144;50.020;14.422;2023-04-25T07:54:35;98028.28;;;13.24;58.76
77171;BME280;66144;50.020;14.422;2023-04-25T07:57:02;98020.34;;;13.29;57.37
77171;BME280;66144;50.020;14.422;2023-04-25T07:59:29;98021.28;;;13.38;57.34
77171;BME280;66144;50.020;14.422;2023-04-25T08:01:57;98022.59;;;13.59;56.69
77171;BME280;66144;50.020;14.422;2023-04-25T08:04:26;98013.25;;;13.86;55.43
77171;BME280;66144;50.020;14.422;2023-04-25T08:06:54;98017.88;;;14.26;54.30
77171;BME280;66144;50.020;14.422;2023-04-25T08:09:22;98008.78;;;14.37;54.08
77171;BME280;66144;50.020;14.422;2023-04-25T08:11:50;98005.34;;;14.83;54.74
77171;BME280;66144;50.020;14.422;2023-04-25T08:14:17;97998.53;;;15.09;51.82
77171;BME280;66144;50.020;14.422;2023-04-25T08:16:44;97997.50;;;15.82;50.95
77171;BME280;66144;50.020;14.422;2023-04-25T08:19:12;98007.34;;;16.44;50.68
77171;BME280;66144;50.020;14.422;2023-04-25T08:21:40;97999.28;;;17.37;46.42
77171;BME280;66144;50.020;14.422;2023-04-25T08:24:07;97998.03;;;18.38;45.13
77171;BME280;66144;50.020;14.422;2023-04-25T08:26:36;97993.97;;;18.32;44.59
77171;BME280;66144;50.020;14.422;2023-04-25T08:29:05;98010.97;;;17.61;44.60
77171;BME280;66144;50.020;14.422;2023-04-25T08:31:33;98006.78;;;17.43;45.61
77171;BME280;66144;50.020;14.422;2023-04-25T08:34:01;98004.81;;;17.66;45.03
77171;BME280;66144;50.020;14.422;2023-04-25T08:36:27;98007.69;;;17.39;45.42
77171;BME280;66144;50.020;14.422;2023-04-25T08:38:55;98011.88;;;17.31;46.47
77171;BME280;66144;50.020;14.422;2023-04-25T08:41:23;98010.94;;;17.36;46.22
77171;BME280;66144;50.020;14.422;2023-04-25T08:43:51;98003.56;;;16.89;46.16
77171;BME280;66144;50.020;14.422;2023-04-25T08:46:20;98015.06;;;16.40;46.63
77171;BME280;66144;50.020;14.422;2023-04-25T08:48:48;98007.78;;;16.37;48.26
77171;BME280;66144;50.020;14.422;2023-04-25T08:51:27;98011.34;;;16.10;48.15
77171;BME280;66144;50.020;14.422;2023-04-25T08:54:07;98006.25;;;15.92;47.79
77171;BME280;66144;50.020;14.422;2023-04-25T08:56:38;98011.13;;;15.48;47.95
77171;BME280;66144;50.020;14.422;2023-04-25T08:59:06;98005.03;;;15.26;47.82
77171;BME280;66144;50.020;14.422;2023-04-25T09:01:35;98018.00;;;15.22;48.53
77171;BME280;66144;50.020;14.422;2023-04-25T09:04:03;98010.91;;;14.95;48.21
77171;BME280;66144;50.020;14.422;2023-04-25T09:06:30;98019.00;;;14.99;49.33
77171;BME280;66144;50.020;14.422;2023-04-25T09:09:03;98012.16;;;14.84;48.67
77171;BME280;66144;50.020;14.422;2023-04-25T09:11:36;98018.19;;;14.84;49.10
77171;BME280;66144;50.020;14.422;2023-04-25T09:14:14;98016.63;;;14.83;49.07
77171;BME280;66144;50.020;14.422;2023-04-25T09:19:33;98021.31;;;14.59;50.40
77171;BME280;66144;50.020;14.422;2023-04-25T09:22:04;98028.09;;;14.46;51.27
77171;BME280;66144;50.020;14.422;2023-04-25T09:26:59;98030.53;;;14.24;54.30
77171;BME280;66144;50.020;14.422;2023-04-25T09:29:36;98029.31;;;14.03;52.75
77171;BME280;66144;50.020;14.422;2023-04-25T09:34:44;98027.81;;;13.97;56.32
77171;BME280;66144;50.020;14.422;2023-04-25T09:37:18;98029.66;;;13.96;56.56
77171;BME280;66144;50.020;14.422;2023-04-25T09:39:49;98037.81;;;13.95;54.75
77171;BME280;66144;50.020;14.422;2023-04-25T09:42:18;98035.72;;;14.10;55.97
77171;BME280;66144;50.020;14.422;2023-04-25T09:44:49;98033.81;;;14.16;56.31
77171;BME280;66144;50.020;14.422;2023-04-25T09:47:18;98040.47;;;14.27;55.00
77171;BME280;66144;50.020;14.422;2023-04-25T09:49:48;98039.16;;;14.43;53.37
77171;BME280;66144;50.020;14.422;2023-04-25T09:52:19;98033.59;;;14.91;51.74
77171;BME280;66144;50.020;14.422;2023-04-25T09:54:49;98041.41;;;14.96;50.61
77171;BME280;66144;50.020;14.422;2023-04-25T09:57:23;98054.06;;;14.80;51.19
77171;BME280;66144;50.020;14.422;2023-04-25T09:59:54;98065.56;;;14.52;50.71
77171;BME280;66144;50.020;14.422;2023-04-25T10:02:24;98069.47;;;14.03;51.56
77171;BME280;66144;50.020;14.422;2023-04-25T10:04:53;98075.31;;;13.39;53.02
77171;BME280;66144;50.020;14.422;2023-04-25T10:07:24;98090.38;;;13.28;53.60
77171;BME280;66144;50.020;14.422;2023-04-25T10:10:03;98103.91;;;13.11;54.72
77171;BME280;66144;50.020;14.422;2023-04-25T10:12:34;98102.88;;;12.84;56.36
77171;BME280;66144;50.020;14.422;2023-04-25T10:15:03;98106.31;;;12.79;59.50
77171;BME280;66144;50.020;14.422;2023-04-25T10:17:32;98101.88;;;12.51;60.65
77171;BME280;66144;50.020;14.422;2023-04-25T10:20:02;98111.72;;;12.30;61.15
77171;BME280;66144;50.020;14.422;2023-04-25T10:22:44;98103.06;;;12.29;63.16
77171;BME280;66144;50.020;14.422;2023-04-25T10:25:15;98108.59;;;12.23;65.32
77171;BME280;66144;50.020;14.422;2023-04-25T10:27:42;98115.03;;;12.01;65.62
77171;BME280;66144;50.020;14.422;2023-04-25T10:30:16;98125.75;;;12.00;66.47
77171;BME280;66144;50.020;14.422;2023-04-25T10:32:45;98136.09;;;11.76;65.95
77171;BME280;66144;50.020;14.422;2023-04-25T10:35:34;98135.56;;;11.79;65.48
77171;BME280;66144;50.020;14.422;2023-04-25T10:38:11;98137.69;;;11.57;67.38
77171;BME280;66144;50.020;14.422;2023-04-25T10:40:41;98137.47;;;11.53;65.66
77171;BME280;66144;50.020;14.422;2023-04-25T10:46:12;98136.72;;;11.42;65.12
77171;BME280;66144;50.020;14.422;2023-04-25T10:51:27;98146.97;;;11.29;64.56
77171;BME280;66144;50.020;14.422;2023-04-25T10:54:00;98143.34;;;11.10;63.12
77171;BME280;66144;50.020;14.422;2023-04-25T10:56:32;98146.47;;;11.01;66.30
77171;BME280;66144;50.020;14.422;2023-04-25T10:59:19;98145.16;;;11.14;63.06
77171;BME280;66144;50.020;14.422;2023-04-25T11:01:51;98140.72;;;11.15;64.60
77171;BME280;66144;50.020;14.422;2023-04-25T11:04:22;98142.81;;;11.13;64.58
77171;BME280;66144;50.020;14.422;2023-04-25T11:09:33;98158.22;;;11.09;62.93
77171;BME280;66144;50.020;14.422;2023-04-25T11:12:01;98159.03;;;10.99;63.09
77171;BME280;66144;50.020;14.422;2023-04-25T11:14:29;98165.56;;;11.07;66.01
77171;BME280;66144;50.020;14.422;2023-04-25T11:16:58;98162.94;;;11.12;65.50
77171;BME280;66144;50.020;14.422;2023-04-25T11:19:30;98159.25;;;11.23;67.97
77171;BME280;66144;50.020;14.422;2023-04-25T11:22:02;98159.25;;;11.28;66.12
77171;BME280;66144;50.020;14.422;2023-04-25T11:24:33;98156.84;;;11.37;63.95
77171;BME280;66144;50.020;14.422;2023-04-25T11:27:05;98156.88;;;11.32;62.49
77171;BME280;66144;50.020;14.422;2023-04-25T11:29:34;98150.31;;;11.45;62.94
77171;BME280;66144;50.020;14.422;2023-04-25T11:32:04;98159.44;;;11.52;63.18
77171;BME280;66144;50.020;14.422;2023-04-25T11:34:34;98159.72;;;11.51;61.38
77171;BME280;66144;50.020;14.422;2023-04-25T11:37:02;98166.78;;;11.45;61.66
77171;BME280;66144;50.020;14.422;2023-04-25T11:39:31;98162.06;;;11.52;62.67
77171;BME280;66144;50.020;14.422;2023-04-25T11:41:59;98156.78;;;11.57;63.61
77171;BME280;66144;50.020;14.422;2023-04-25T11:44:28;98157.03;;;11.71;63.68
77171;BME280;66144;50.020;14.422;2023-04-25T11:46:57;98161.63;;;11.94;65.19
77171;BME280;66144;50.020;14.422;2023-04-25T11:49:31;98161.88;;;12.03;62.11
77171;BME280;66144;50.020;14.422;2023-04-25T11:51:58;98161.19;;;12.31;60.55
77171;BME280;66144;50.020;14.422;2023-04-25T11:54:26;98156.91;;;12.45;60.09
77171;BME280;66144;50.020;14.422;2023-04-25T11:56:53;98150.38;;;12.77;58.79
77171;BME280;66144;50.020;14.422;2023-04-25T11:59:24;98155.22;;;13.23;55.57
77171;BME280;66144;50.020;14.422;2023-04-25T12:01:54;98146.00;;;13.49;53.34
77171;BME280;66144;50.020;14.422;2023-04-25T12:04:23;98145.28;;;13.67;50.81
77171;BME280;66144;50.020;14.422;2023-04-25T12:06:54;98128.88;;;13.99;52.54
77171;BME280;66144;50.020;14.422;2023-04-25T12:09:33;98131.28;;;14.14;50.72
77171;BME280;66144;50.020;14.422;2023-04-25T12:12:01;98134.47;;;14.30;49.03
77171;BME280;66144;50.020;14.422;2023-04-25T12:14:33;98129.84;;;14.60;51.45
77171;BME280;66144;50.020;14.422;2023-04-25T12:17:03;98133.00;;;14.75;50.53
77171;BME280;66144;50.020;14.422;2023-04-25T12:19:36;98127.13;;;14.97;47.92
77171;BME280;66144;50.020;14.422;2023-04-25T12:22:19;98114.34;;;15.04;47.42
77171;BME280;66144;50.020;14.422;2023-04-25T12:24:47;98119.22;;;15.25;47.36
77171;BME280;66144;50.020;14.422;2023-04-25T12:27:16;98110.19;;;15.31;43.88
77171;BME280;66144;50.020;14.422;2023-04-25T12:29:55;98113.78;;;15.48;44.42
77171;BME280;66144;50.020;14.422;2023-04-25T12:32:23;98117.63;;;15.56;43.40
77171;BME280;66144;50.020;14.422;2023-04-25T12:34:53;98123.25;;;15.63;42.65
77171;BME280;66144;50.020;14.422;2023-04-25T12:37:22;98119.34;;;15.74;43.50
77171;BME280;66144;50.020;14.422;2023-04-25T12:39:50;98117.94;;;15.91;43.78
77171;BME280;66144;50.020;14.422;2023-04-25T12:42:17;98123.38;;;15.58;42.03
77171;BME280;66144;50.020;14.422;2023-04-25T12:44:45;98126.47;;;15.60;41.71
77171;BME280;66144;50.020;14.422;2023-04-25T12:47:13;98124.41;;;15.43;43.53
77171;BME280;66144;50.020;14.422;2023-04-25T12:49:41;98127.16;;;15.38;42.26
77171;BME280;66144;50.020;14.422;2023-04-25T12:52:09;98123.53;;;15.48;41.76
77171;BME280;66144;50.020;14.422;2023-04-25T12:54:36;98124.59;;;15.33;42.20
77171;BME280;66144;50.020;14.422;2023-04-25T12:57:05;98121.88;;;15.25;42.02
77171;BME280;66144;50.020;14.422;2023-04-25T12:59:32;98133.38;;;15.15;42.39
77171;BME280;66144;50.020;14.422;2023-04-25T13:01:59;98137.44;;;15.07;43.04
77171;BME280;66144;50.020;14.422;2023-04-25T13:04:27;98140.25;;;14.97;43.90
77171;BME280;66144;50.020;14.422;2023-04-25T13:06:54;98143.53;;;14.89;43.44
77171;BME280;66144;50.020;14.422;2023-04-25T13:09:22;98141.16;;;14.74;43.46
77171;BME280;66144;50.020;14.422;2023-04-25T13:11:50;98150.72;;;14.51;44.56
77171;BME280;66144;50.020;14.422;2023-04-25T13:14:18;98149.38;;;14.35;44.81
77171;BME280;66144;50.020;14.422;2023-04-25T13:16:46;98150.22;;;14.49;45.47
77171;BME280;66144;50.020;14.422;2023-04-25T13:19:15;98150.66;;;14.37;45.61